Time;durP1;ratioP1;P1;durP2;ratioP2;P2;SDS_P1;SDS_P2;PMS_P1;PMS_P2;Temp;Humidity;BMP_temperature;BMP_pressure;BME280_temperature;BME280_humidity;BME280_pressure;Samples;Min_cycle;Max_cycle;Signal;HPM_P1;HPM_P2
2021/04/20 00:01:37;;;;;;;60.47;43.37;;;5.90;99.90;;;;;;5028884;28;20531;-88
2021/04/20 00:04:03;;;;;;;58.43;39.73;;;5.90;99.90;;;;;;5031275;28;20437;-88
2021/04/20 00:06:30;;;;;;;62.80;41.67;;;5.90;99.90;;;;;;5035933;28;20441;-87
2021/04/20 00:08:56;;;;;;;62.17;40.93;;;5.90;99.90;;;;;;5032310;28;20442;-87
2021/04/20 00:11:23;;;;;;;61.00;41.80;;;6.00;99.90;;;;;;5032504;28;20456;-87
2021/04/20 00:13:50;;;;;;;56.80;40.60;;;5.90;99.90;;;;;;5038023;28;20438;-88
2021/04/20 00:16:16;;;;;;;59.83;42.40;;;5.90;99.90;;;;;;5039432;28;20485;-88
2021/04/20 00:18:42;;;;;;;64.60;44.23;;;5.80;99.90;;;;;;5039908;28;20429;-88
2021/04/20 00:21:09;;;;;;;65.00;45.13;;;5.80;99.90;;;;;;5033157;28;20443;-88
2021/04/20 00:23:35;;;;;;;62.57;42.17;;;5.80;99.90;;;;;;5039513;28;20441;-88
2021/04/20 00:26:01;;;;;;;66.70;44.00;;;5.80;99.90;;;;;;5038456;28;20460;-88
2021/04/20 00:28:29;;;;;;;66.73;43.93;;;5.90;99.90;;;;;;5021612;28;20475;-88
2021/04/20 00:30:56;;;;;;;56.40;41.10;;;5.90;99.90;;;;;;5018438;28;20429;-88
2021/04/20 00:33:23;;;;;;;64.23;42.27;;;6.00;99.90;;;;;;5017321;28;20442;-88
2021/04/20 00:35:50;;;;;;;57.13;41.30;;;6.00;99.90;;;;;;5017777;28;20547;-88
2021/04/20 00:38:16;;;;;;;55.77;41.30;;;6.00;99.90;;;;;;5017061;28;20470;-88
2021/04/20 00:40:42;;;;;;;56.13;40.70;;;6.00;99.90;;;;;;5017236;28;20446;-88
2021/04/20 00:43:09;;;;;;;56.90;43.33;;;5.90;99.90;;;;;;5016881;28;20457;-88
2021/04/20 00:45:39;;;;;;;57.60;38.73;;;6.00;99.90;;;;;;5016713;28;20458;-87
2021/04/20 00:48:07;;;;;;;51.73;38.73;;;5.90;99.90;;;;;;5035604;28;20431;-88
2021/04/20 00:50:36;;;;;;;53.50;38.43;;;5.90;99.90;;;;;;5021646;28;20449;-88
2021/04/20 00:53:03;;;;;;;55.47;37.97;;;5.90;99.90;;;;;;5016685;28;20450;-88
2021/04/20 00:55:30;;;;;;;51.70;38.67;;;5.80;99.90;;;;;;5015615;28;20489;-88
2021/04/20 00:57:56;;;;;;;55.50;39.70;;;5.70;99.90;;;;;;5016356;28;20453;-87
2021/04/20 01:00:25;;;;;;;52.40;38.00;;;5.70;99.90;;;;;;5025336;28;20445;-88
2021/04/20 01:02:52;;;;;;;55.67;40.77;;;5.60;99.90;;;;;;5019189;28;20924;-88
2021/04/20 01:05:21;;;;;;;55.50;39.40;;;5.60;99.90;;;;;;5014778;28;20477;-88
2021/04/20 01:07:48;;;;;;;60.90;40.50;;;5.60;99.90;;;;;;5018441;28;20469;-88
2021/04/20 01:10:15;;;;;;;58.27;41.53;;;5.60;99.90;;;;;;5024621;28;20441;-87
2021/04/20 01:12:43;;;;;;;51.60;39.73;;;5.60;99.90;;;;;;5021736;28;20481;-87
2021/04/20 01:15:12;;;;;;;68.07;41.00;;;5.60;99.90;;;;;;5018399;28;20893;-88
2021/04/20 01:17:38;;;;;;;56.60;39.50;;;5.60;99.90;;;;;;5015960;28;20442;-88
2021/04/20 01:20:08;;;;;;;55.83;37.63;;;5.60;99.90;;;;;;5016538;28;20452;-88
2021/04/20 01:22:37;;;;;;;58.37;40.70;;;5.60;99.90;;;;;;5014273;28;20526;-87
2021/04/20 01:25:07;;;;;;;50.23;35.03;;;5.50;99.90;;;;;;5015144;28;20485;-88
2021/04/20 01:27:33;;;;;;;50.33;37.37;;;5.50;99.90;;;;;;5020518;28;20452;-88
2021/04/20 01:30:00;;;;;;;55.40;40.37;;;5.50;99.90;;;;;;5027982;28;20449;-87
2021/04/20 01:32:27;;;;;;;52.73;37.90;;;5.40;99.90;;;;;;5025967;28;20813;-88
2021/04/20 01:34:55;;;;;;;51.03;37.67;;;5.40;99.90;;;;;;5014905;28;20732;-88
2021/04/20 01:37:22;;;;;;;61.93;41.17;;;5.40;99.90;;;;;;5014432;28;20856;-88
2021/04/20 01:39:49;;;;;;;51.47;38.77;;;5.40;99.90;;;;;;5014157;28;20453;-88
2021/04/20 01:42:16;;;;;;;56.67;38.97;;;5.30;99.90;;;;;;5026313;28;20448;-88
2021/04/20 01:44:43;;;;;;;50.03;37.40;;;5.30;99.90;;;;;;5025218;28;20455;-87
2021/04/20 01:47:10;;;;;;;54.57;38.70;;;5.30;99.90;;;;;;5018227;28;20446;-88
2021/04/20 01:49:38;;;;;;;54.97;38.10;;;5.30;99.90;;;;;;5034744;28;20451;-89
2021/04/20 01:52:04;;;;;;;51.90;39.40;;;5.20;99.90;;;;;;5023238;28;20441;-88
2021/04/20 01:54:30;;;;;;;55.80;39.27;;;5.20;99.90;;;;;;5034948;28;20467;-88
2021/04/20 01:56:58;;;;;;;57.53;38.70;;;5.20;99.90;;;;;;5022316;28;20485;-88
2021/04/20 01:59:25;;;;;;;60.97;41.53;;;5.20;99.90;;;;;;5022878;28;20446;-88
2021/04/20 02:01:51;;;;;;;58.77;40.40;;;5.10;99.90;;;;;;5017015;28;20479;-88
2021/04/20 02:04:18;;;;;;;60.03;40.63;;;5.10;99.90;;;;;;5014285;28;20487;-88
2021/04/20 02:06:44;;;;;;;57.00;39.27;;;5.10;99.90;;;;;;5013584;28;20483;-88
2021/04/20 02:09:11;;;;;;;58.87;40.03;;;5.10;99.90;;;;;;5014289;28;20448;-88
2021/04/20 02:11:37;;;;;;;60.43;39.23;;;5.10;99.90;;;;;;5013680;28;20441;-88
2021/04/20 02:14:04;;;;;;;52.17;37.57;;;5.10;99.90;;;;;;5013626;28;20464;-88
2021/04/20 02:16:31;;;;;;;56.97;37.50;;;5.10;99.90;;;;;;5019601;28;20487;-89
2021/04/20 02:19:04;;;;;;;55.67;38.30;;;5.10;99.90;;;;;;5034562;28;20434;-88
2021/04/20 02:21:32;;;;;;;52.83;37.27;;;5.10;99.90;;;;;;5021341;28;20458;-88
2021/04/20 02:23:58;;;;;;;54.13;41.07;;;5.10;99.90;;;;;;5013653;28;20463;-88
2021/04/20 02:26:27;;;;;;;52.40;38.20;;;5.20;99.90;;;;;;5013976;28;20451;-88
2021/04/20 02:28:57;;;;;;;51.53;38.07;;;5.20;99.90;;;;;;5014003;28;20449;-88
2021/04/20 02:31:23;;;;;;;50.20;37.30;;;5.10;99.90;;;;;;5013179;28;20502;-87
2021/04/20 02:33:50;;;;;;;47.30;38.00;;;5.20;99.90;;;;;;5019124;28;20452;-88
2021/04/20 02:36:17;;;;;;;52.03;37.73;;;5.20;99.90;;;;;;5016748;28;20570;-88
2021/04/20 02:38:45;;;;;;;56.57;40.10;;;5.10;99.90;;;;;;5013646;28;20432;-87
2021/04/20 02:41:16;;;;;;;50.20;38.43;;;5.20;99.90;;;;;;5013019;28;20452;-88
2021/04/20 02:43:43;;;;;;;44.87;35.53;;;5.10;99.90;;;;;;5013645;28;20429;-87
2021/04/20 02:46:10;;;;;;;50.53;37.43;;;5.10;99.90;;;;;;5015051;28;20977;-88
2021/04/20 02:48:36;;;;;;;54.20;39.80;;;5.10;99.90;;;;;;5024432;28;20451;-88
2021/04/20 02:51:09;;;;;;;55.80;38.30;;;5.10;99.90;;;;;;5019887;28;20461;-88
2021/04/20 02:53:35;;;;;;;50.20;35.67;;;5.10;99.90;;;;;;5013918;28;20450;-88
2021/04/20 02:56:01;;;;;;;52.30;40.00;;;5.10;99.90;;;;;;5013148;28;21009;-88
2021/04/20 02:58:29;;;;;;;53.97;39.87;;;5.20;99.90;;;;;;5022420;28;20457;-87
2021/04/20 03:01:01;;;;;;;52.40;39.97;;;5.10;99.90;;;;;;5034906;28;20452;-88
2021/04/20 03:03:28;;;;;;;57.50;40.33;;;5.20;99.90;;;;;;5026223;28;20521;-88
2021/04/20 03:05:55;;;;;;;55.13;40.50;;;5.20;99.90;;;;;;5017524;28;20467;-87
2021/04/20 03:08:22;;;;;;;52.80;38.00;;;5.20;99.90;;;;;;5017480;28;20446;-87
2021/04/20 03:10:50;;;;;;;51.93;38.50;;;5.30;99.90;;;;;;5023559;28;20448;-87
2021/04/20 03:13:16;;;;;;;55.50;38.27;;;5.30;99.90;;;;;;5028335;28;20480;-88
2021/04/20 03:15:44;;;;;;;55.83;37.00;;;5.30;99.90;;;;;;5027888;28;20492;-88
2021/04/20 03:18:11;;;;;;;53.47;39.03;;;5.30;99.90;;;;;;5019109;28;20448;-87
2021/04/20 03:20:37;;;;;;;52.43;38.67;;;5.30;99.90;;;;;;5017424;28;20463;-87
2021/04/20 03:23:04;;;;;;;49.63;36.43;;;5.30;99.90;;;;;;5017477;28;20980;-88
2021/04/20 03:25:34;;;;;;;51.50;38.20;;;5.40;99.90;;;;;;5016855;28;20477;-88
2021/04/20 03:28:00;;;;;;;48.60;37.20;;;5.30;99.90;;;;;;5017650;28;20512;-88
2021/04/20 03:30:28;;;;;;;50.00;34.50;;;5.30;99.90;;;;;;5019000;28;20476;-87
2021/04/20 03:33:01;;;;;;;48.50;36.90;;;5.30;99.90;;;;;;5032060;28;20446;-88
2021/04/20 03:35:31;;;;;;;47.37;35.43;;;5.30;99.90;;;;;;5017164;28;20551;-88
2021/04/20 03:38:04;;;;;;;50.80;37.30;;;5.30;99.90;;;;;;5015397;28;20452;-88
2021/04/20 03:40:34;;;;;;;51.67;38.07;;;5.30;99.90;;;;;;5016316;28;20454;-88
2021/04/20 03:43:02;;;;;;;48.07;37.40;;;5.40;99.90;;;;;;5020106;28;20444;-88
2021/04/20 03:45:34;;;;;;;50.60;36.57;;;5.30;99.90;;;;;;5034173;28;20465;-88
2021/04/20 03:48:10;;;;;;;46.87;36.10;;;5.40;99.90;;;;;;5028000;28;20501;-88
2021/04/20 03:50:39;;;;;;;46.67;36.80;;;5.40;99.90;;;;;;5039135;28;20425;-88
2021/04/20 03:53:12;;;;;;;42.47;33.47;;;5.40;99.90;;;;;;5018103;28;20441;-87
2021/04/20 03:55:41;;;;;;;46.93;36.17;;;5.40;99.90;;;;;;5026800;28;20480;-88
2021/04/20 03:58:08;;;;;;;48.20;34.17;;;5.30;99.90;;;;;;5005633;28;20457;-88
2021/04/20 04:00:36;;;;;;;49.17;37.30;;;5.40;99.90;;;;;;5015303;28;20454;-88
2021/04/20 04:03:06;;;;;;;45.87;35.27;;;5.40;99.90;;;;;;5020470;28;20450;-89
2021/04/20 04:05:35;;;;;;;44.40;34.77;;;5.40;99.90;;;;;;5020302;28;20537;-88
2021/04/20 04:08:02;;;;;;;45.63;34.83;;;5.40;99.90;;;;;;5013369;28;20432;-88
2021/04/20 04:10:30;;;;;;;44.23;34.97;;;5.30;99.90;;;;;;5017441;28;20453;-89
2021/04/20 04:13:02;;;;;;;45.87;33.70;;;5.20;99.90;;;;;;5019571;28;20443;-89
2021/04/20 04:15:29;;;;;;;47.07;35.87;;;5.20;99.90;;;;;;5006707;28;20469;-88
2021/04/20 04:17:57;;;;;;;45.70;34.70;;;5.20;99.90;;;;;;5018712;28;20459;-88
2021/04/20 04:20:24;;;;;;;51.43;34.13;;;5.20;99.90;;;;;;5017777;28;20916;-88
2021/04/20 04:22:54;;;;;;;55.80;36.63;;;5.20;99.90;;;;;;5019063;28;20454;-88
2021/04/20 04:25:25;;;;;;;50.43;36.83;;;5.20;99.90;;;;;;5020869;28;20470;-88
2021/04/20 04:28:22;;;;;;;51.80;36.27;;;5.20;99.90;;;;;;5026862;28;20463;-88
2021/04/20 04:30:56;;;;;;;47.57;36.47;;;5.10;99.90;;;;;;5022822;28;20456;-88
2021/04/20 04:33:44;;;;;;;46.33;35.13;;;5.10;99.90;;;;;;5018943;28;20469;-88
2021/04/20 04:39:07;;;;;;;48.23;34.60;;;5.20;99.90;;;;;;5016271;28;20443;-88
2021/04/20 04:41:43;;;;;;;43.93;33.87;;;5.30;99.90;;;;;;5017714;28;20548;-87
2021/04/20 04:44:12;;;;;;;48.90;36.60;;;5.30;99.90;;;;;;5017448;28;20457;-87
2021/04/20 04:46:45;;;;;;;47.33;32.90;;;5.30;99.90;;;;;;5024449;28;20449;-88
2021/04/20 04:49:27;;;;;;;46.73;34.03;;;5.40;99.90;;;;;;5031707;28;20438;-87
2021/04/20 04:51:55;;;;;;;39.60;32.47;;;5.40;99.90;;;;;;5027781;28;20477;-88
2021/04/20 04:54:35;;;;;;;44.43;33.67;;;5.40;99.90;;;;;;5017385;28;20472;-88
2021/04/20 04:57:07;;;;;;;47.70;34.93;;;5.40;99.90;;;;;;5016807;28;20490;-88
2021/04/20 04:59:41;;;;;;;46.73;34.83;;;5.40;99.90;;;;;;5016475;28;21010;-88
2021/04/20 05:02:21;;;;;;;42.97;35.70;;;5.50;99.90;;;;;;5021858;28;20464;-87
2021/04/20 05:04:55;;;;;;;51.13;36.80;;;5.60;99.90;;;;;;5003295;28;20474;-88
2021/04/20 05:07:36;;;;;;;49.07;35.53;;;5.70;99.90;;;;;;4996835;28;21070;-89
2021/04/20 05:10:15;;;;;;;43.60;35.00;;;5.70;99.90;;;;;;5023720;28;20965;-86
2021/04/20 05:13:01;;;;;;;43.40;30.70;;;5.70;99.90;;;;;;5025521;28;20525;-88
2021/04/20 05:15:46;;;;;;;44.60;35.13;;;5.70;99.90;;;;;;5024387;28;20571;-85
2021/04/20 05:18:14;;;;;;;49.40;34.87;;;5.80;99.90;;;;;;5043804;28;20460;-86
2021/04/20 05:20:41;;;;;;;44.73;33.53;;;5.90;99.90;;;;;;5029236;28;20456;-87
2021/04/20 05:23:08;;;;;;;42.17;33.03;;;5.90;99.90;;;;;;5028265;28;20450;-87
2021/04/20 05:25:35;;;;;;;45.70;33.20;;;6.00;99.90;;;;;;5024543;28;20472;-86
2021/04/20 05:28:02;;;;;;;41.60;30.40;;;6.10;99.90;;;;;;5024475;28;20454;-88
2021/04/20 05:30:30;;;;;;;41.30;33.07;;;6.20;99.90;;;;;;5025473;28;20454;-88
2021/04/20 05:32:59;;;;;;;40.37;32.17;;;6.30;99.90;;;;;;5034475;28;20428;-87
2021/04/20 05:35:25;;;;;;;41.93;33.80;;;6.30;99.90;;;;;;5041494;28;20469;-87
2021/04/20 05:37:51;;;;;;;46.43;33.30;;;6.40;99.90;;;;;;5031843;28;20465;-88
2021/04/20 05:40:19;;;;;;;41.73;32.57;;;6.40;99.90;;;;;;5029012;28;20449;-88
2021/04/20 05:42:46;;;;;;;41.60;32.13;;;6.50;99.90;;;;;;5025558;28;20441;-87
2021/04/20 05:45:16;;;;;;;41.27;30.90;;;6.50;99.90;;;;;;5022969;28;20540;-88
2021/04/20 05:47:45;;;;;;;34.83;30.30;;;6.60;99.90;;;;;;5046698;22;20553;-84
2021/04/20 05:50:17;;;;;;;35.60;29.27;;;6.70;99.90;;;;;;5038302;28;20443;-84
2021/04/20 05:52:44;;;;;;;39.87;29.50;;;6.80;99.90;;;;;;5023602;28;20445;-86
2021/04/20 05:55:11;;;;;;;31.57;28.10;;;6.80;99.90;;;;;;5036631;28;20469;-86
2021/04/20 05:57:37;;;;;;;34.60;28.93;;;6.90;99.90;;;;;;5052169;28;20476;-86
2021/04/20 06:00:06;;;;;;;29.27;26.10;;;7.00;99.90;;;;;;5043819;28;20441;-85
2021/04/20 06:02:36;;;;;;;30.90;27.07;;;7.30;99.90;;;;;;5026696;28;20954;-87
2021/04/20 06:05:08;;;;;;;31.07;26.20;;;7.50;99.90;;;;;;5053178;28;20432;-86
2021/04/20 06:07:36;;;;;;;28.77;25.33;;;7.70;99.90;;;;;;5043004;28;20461;-83
2021/04/20 06:10:05;;;;;;;25.33;22.83;;;8.20;99.90;;;;;;5043932;28;20433;-85
2021/04/20 06:12:32;;;;;;;25.40;22.23;;;8.80;99.90;;;;;;5039153;28;20453;-87
2021/04/20 06:14:59;;;;;;;25.50;22.97;;;9.30;99.90;;;;;;5034041;28;20458;-86
2021/04/20 06:17:26;;;;;;;24.13;21.83;;;9.80;99.90;;;;;;5043073;28;20524;-86
2021/04/20 06:19:52;;;;;;;25.70;23.00;;;10.30;99.90;;;;;;5036778;28;20437;-86
2021/04/20 06:22:20;;;;;;;26.97;24.13;;;10.80;99.10;;;;;;5017401;28;20458;-86
2021/04/20 06:24:46;;;;;;;26.07;23.57;;;11.30;97.30;;;;;;5021681;28;20453;-86
2021/04/20 06:27:13;;;;;;;24.10;20.97;;;11.80;95.90;;;;;;5009972;28;20894;-87
2021/04/20 06:29:39;;;;;;;27.13;24.30;;;12.10;94.80;;;;;;5039527;28;20442;-86
2021/04/20 06:32:06;;;;;;;25.90;23.37;;;12.70;94.10;;;;;;5042520;28;20497;-86
2021/04/20 06:34:33;;;;;;;28.70;25.07;;;12.90;93.40;;;;;;5026453;28;20458;-86
2021/04/20 06:37:00;;;;;;;25.70;23.30;;;13.20;92.70;;;;;;5019035;28;20490;-87
2021/04/20 06:39:27;;;;;;;26.20;23.63;;;13.10;91.80;;;;;;5016981;28;20828;-86
2021/04/20 06:41:56;;;;;;;27.30;24.50;;;13.10;91.90;;;;;;5018060;28;20450;-86
2021/04/20 06:44:29;;;;;;;26.10;23.67;;;13.00;91.90;;;;;;5017207;28;20442;-86
2021/04/20 06:47:00;;;;;;;26.90;24.30;;;13.30;92.40;;;;;;5017690;28;20537;-86
2021/04/20 06:49:30;;;;;;;29.47;26.70;;;13.30;91.30;;;;;;5017522;28;20454;-87
2021/04/20 06:52:01;;;;;;;29.87;26.97;;;13.10;91.40;;;;;;5017696;28;20458;-86
2021/04/20 06:54:32;;;;;;;29.93;26.33;;;12.70;91.90;;;;;;5017744;28;20444;-86
2021/04/20 06:57:04;;;;;;;30.67;27.47;;;12.70;92.10;;;;;;5017382;28;20481;-87
2021/04/20 06:59:43;;;;;;;35.60;29.13;;;12.30;91.80;;;;;;5032339;28;20446;-86
2021/04/20 07:02:17;;;;;;;32.87;29.33;;;11.70;92.70;;;;;;5039583;28;20454;-86
2021/04/20 07:04:54;;;;;;;33.80;29.47;;;11.30;93.80;;;;;;5031664;28;20430;-93
2021/04/20 07:07:41;;;;;;;33.33;29.77;;;11.00;94.70;;;;;;5036528;28;20470;-84
2021/04/20 07:10:20;;;;;;;35.70;30.93;;;10.90;95.50;;;;;;5033138;28;20490;-86
2021/04/20 07:12:49;;;;;;;34.77;31.07;;;10.80;95.80;;;;;;5020488;28;20437;-86
2021/04/20 07:15:31;;;;;;;37.40;30.07;;;11.10;96.50;;;;;;5029746;28;20470;-85
2021/04/20 07:18:44;;;;;;;34.17;30.53;;;11.80;95.30;;;;;;5028797;28;20528;-86
2021/04/20 07:24:39;;;;;;;41.33;30.03;;;12.20;94.10;;;;;;5020605;28;20954;-85
2021/04/20 07:27:23;;;;;;;30.63;27.33;;;13.50;94.50;;;;;;5018816;28;20534;-86
2021/04/20 07:30:03;;;;;;;30.23;27.00;;;14.70;91.20;;;;;;5020929;28;20465;-86
2021/04/20 07:33:03;;;;;;;29.07;25.97;;;15.50;87.40;;;;;;5020450;28;20474;-86
2021/04/20 07:35:44;;;;;;;27.93;25.33;;;15.90;84.80;;;;;;5016965;28;20453;-86
2021/04/20 07:38:25;;;;;;;29.23;26.53;;;16.80;83.00;;;;;;5031200;28;20549;-86
2021/04/20 07:41:23;;;;;;;26.67;24.17;;;17.30;81.50;;;;;;5035761;28;20439;-87
2021/04/20 07:44:04;;;;;;;29.20;26.47;;;17.60;78.60;;;;;;5016936;28;20457;-85
2021/04/20 07:46:41;;;;;;;28.53;25.93;;;18.20;76.40;;;;;;5016868;28;20528;-86
2021/04/20 07:49:28;;;;;;;29.13;26.33;;;18.20;75.40;;;;;;5017275;28;20461;-86
2021/04/20 07:52:16;;;;;;;28.00;25.30;;;17.90;74.80;;;;;;5008274;28;20473;-86
2021/04/20 07:54:51;;;;;;;29.23;26.40;;;17.80;74.40;;;;;;5016819;28;20509;-86
2021/04/20 07:57:25;;;;;;;29.03;26.13;;;17.60;76.60;;;;;;5016270;28;20485;-87
2021/04/20 08:02:57;;;;;;;29.30;25.90;;;17.30;76.10;;;;;;5014649;28;20496;-85
2021/04/20 08:05:29;;;;;;;29.27;26.37;;;18.00;75.40;;;;;;5022063;28;20441;-86
2021/04/20 08:08:10;;;;;;;30.73;27.97;;;18.50;74.70;;;;;;5016247;28;20487;-86
2021/04/20 08:10:46;;;;;;;31.80;28.70;;;19.40;72.30;;;;;;5016588;28;20491;-86
2021/04/20 08:13:20;;;;;;;28.97;26.27;;;19.90;69.70;;;;;;5016471;28;20435;-87
2021/04/20 08:15:53;;;;;;;29.93;27.10;;;21.10;67.70;;;;;;5015474;28;20454;-86
2021/04/20 08:18:28;;;;;;;29.67;27.00;;;21.50;64.20;;;;;;5019935;28;20674;-86
2021/04/20 08:20:55;;;;;;;32.33;29.17;;;21.90;64.00;;;;;;5023807;28;20464;-86
2021/04/20 08:23:25;;;;;;;32.20;29.20;;;22.30;62.50;;;;;;5020565;28;20459;-87
2021/04/20 08:25:57;;;;;;;32.60;29.60;;;22.50;59.90;;;;;;5030083;28;20433;-85
2021/04/20 08:28:36;;;;;;;34.50;30.77;;;22.70;59.10;;;;;;5027075;28;20471;-86
2021/04/20 08:31:09;;;;;;;32.33;29.23;;;23.60;58.50;;;;;;5016392;28;20505;-86
2021/04/20 08:33:40;;;;;;;32.03;29.00;;;23.10;58.50;;;;;;5016327;28;20459;-87
2021/04/20 08:36:10;;;;;;;32.37;29.47;;;23.90;57.00;;;;;;5015343;28;20986;-86
2021/04/20 08:38:49;;;;;;;30.80;27.87;;;22.70;56.40;;;;;;5016136;28;20451;-86
2021/04/20 08:41:21;;;;;;;29.43;26.83;;;22.40;58.70;;;;;;5016132;28;20817;-87
2021/04/20 08:43:56;;;;;;;33.23;30.10;;;24.00;57.00;;;;;;5025415;28;20456;-86
2021/04/20 08:46:31;;;;;;;30.53;27.93;;;24.50;55.00;;;;;;5019911;28;20579;-86
2021/04/20 08:49:05;;;;;;;29.90;27.20;;;24.60;54.30;;;;;;5018675;28;20461;-86
2021/04/20 08:51:39;;;;;;;29.33;26.73;;;24.70;52.90;;;;;;5017284;28;20458;-86
2021/04/20 08:54:17;;;;;;;28.90;26.67;;;24.80;53.00;;;;;;5015865;28;20465;-86
2021/04/20 08:56:48;;;;;;;30.53;27.77;;;23.30;53.00;;;;;;5015552;28;20468;-86
2021/04/20 08:59:27;;;;;;;29.57;27.07;;;22.00;57.00;;;;;;5016376;28;20440;-85
2021/04/20 09:02:23;;;;;;;29.83;27.27;;;23.30;56.10;;;;;;5015949;28;20503;-86
2021/04/20 09:05:14;;;;;;;28.77;26.33;;;24.80;54.00;;;;;;5019277;28;20452;-86
2021/04/20 09:07:51;;;;;;;28.80;26.20;;;26.10;51.90;;;;;;5033946;28;20497;-83
2021/04/20 09:10:20;;;;;;;31.23;28.63;;;27.10;50.20;;;;;;5021093;28;20457;-86
2021/04/20 09:12:50;;;;;;;29.03;26.70;;;27.60;48.40;;;;;;5017067;28;20815;-86
2021/04/20 09:15:19;;;;;;;28.40;25.90;;;28.10;47.50;;;;;;5022033;28;20450;-85
2021/04/20 09:17:49;;;;;;;28.60;26.20;;;29.00;46.20;;;;;;5027722;28;20470;-85
2021/04/20 09:20:24;;;;;;;30.17;27.40;;;29.60;44.50;;;;;;5019688;28;20461;-84
2021/04/20 09:22:57;;;;;;;29.40;27.00;;;29.30;43.60;;;;;;5015832;28;20508;-84
2021/04/20 09:25:27;;;;;;;27.67;25.40;;;28.90;44.80;;;;;;5015122;28;20456;-84
2021/04/20 09:28:01;;;;;;;29.23;26.83;;;29.00;43.70;;;;;;5015263;28;20553;-84
2021/04/20 09:30:33;;;;;;;30.90;28.50;;;27.90;44.80;;;;;;5015471;28;20455;-84
2021/04/20 09:33:07;;;;;;;30.70;28.17;;;27.60;45.80;;;;;;5026037;28;20460;-84
2021/04/20 09:35:34;;;;;;;30.90;28.20;;;28.20;45.00;;;;;;5035873;28;20486;-84
2021/04/20 09:38:02;;;;;;;27.77;25.57;;;28.90;44.00;;;;;;5034099;28;20493;-83
2021/04/20 09:40:30;;;;;;;28.17;25.97;;;30.00;43.00;;;;;;5033082;28;20458;-84
2021/04/20 09:43:04;;;;;;;29.63;27.23;;;30.40;41.80;;;;;;5025979;28;20450;-85
2021/04/20 09:45:35;;;;;;;29.37;27.07;;;30.70;40.80;;;;;;5026489;28;20443;-84
2021/04/20 09:48:12;;;;;;;30.07;27.67;;;31.20;39.80;;;;;;5032141;28;20493;-85
2021/04/20 09:50:50;;;;;;;31.20;28.80;;;32.40;38.30;;;;;;5032654;28;20445;-84
2021/04/20 09:53:37;;;;;;;28.87;26.73;;;31.60;38.50;;;;;;5035023;28;20441;-84
2021/04/20 09:56:17;;;;;;;28.33;26.23;;;32.20;37.80;;;;;;5033020;28;20438;-84
2021/04/20 09:58:44;;;;;;;29.13;26.83;;;30.00;39.20;;;;;;5036309;28;20498;-84
2021/04/20 10:01:21;;;;;;;29.00;26.60;;;30.50;40.20;;;;;;5024352;28;20743;-85
2021/04/20 10:03:57;;;;;;;27.10;25.00;;;31.90;38.50;;;;;;5017032;28;20450;-86
2021/04/20 10:06:37;;;;;;;28.33;26.07;;;32.60;37.00;;;;;;5015552;28;20485;-85
2021/04/20 10:09:15;;;;;;;24.63;22.63;;;32.10;36.50;;;;;;5016317;28;20449;-85
2021/04/20 10:11:50;;;;;;;22.77;20.97;;;30.20;37.10;;;;;;5015520;28;20450;-84
2021/04/20 10:14:26;;;;;;;30.10;27.70;;;27.50;40.10;;;;;;5018516;28;20449;-85
2021/04/20 10:17:05;;;;;;;23.30;21.40;;;26.60;42.30;;;;;;5015430;28;20458;-84
2021/04/20 10:19:40;;;;;;;25.77;23.40;;;26.40;43.00;;;;;;5014056;28;20449;-85
2021/04/20 10:22:19;;;;;;;24.60;22.50;;;27.30;42.30;;;;;;5014693;28;20464;-85
2021/04/20 10:24:52;;;;;;;22.63;20.83;;;27.30;43.00;;;;;;5013836;28;20449;-85
2021/04/20 10:27:22;;;;;;;23.87;21.87;;;27.00;42.60;;;;;;5013336;28;20909;-85
2021/04/20 10:29:55;;;;;;;24.87;22.50;;;28.20;41.10;;;;;;5013814;28;20489;-84
2021/04/20 10:32:27;;;;;;;24.57;22.40;;;28.40;40.40;;;;;;5013926;28;20864;-84
2021/04/20 10:34:55;;;;;;;23.07;21.13;;;28.70;40.20;;;;;;5033835;28;20430;-84
2021/04/20 10:37:31;;;;;;;21.73;19.87;;;30.10;39.20;;;;;;5017106;28;21023;-84
2021/04/20 10:39:59;;;;;;;22.40;20.50;;;28.60;39.00;;;;;;5015509;28;20472;-85
2021/04/20 10:42:27;;;;;;;22.77;20.60;;;26.90;40.80;;;;;;5014143;28;20469;-85
2021/04/20 10:44:55;;;;;;;21.87;20.07;;;26.40;42.00;;;;;;5014341;28;20460;-84
2021/04/20 10:47:22;;;;;;;22.20;20.30;;;27.10;41.20;;;;;;5014108;28;21201;-85
2021/04/20 10:49:51;;;;;;;21.13;19.33;;;26.30;42.00;;;;;;5013677;28;20453;-85
2021/04/20 10:52:19;;;;;;;21.47;19.70;;;25.90;42.20;;;;;;5012423;28;20450;-84
2021/04/20 10:54:48;;;;;;;19.30;17.67;;;24.60;44.00;;;;;;5013164;28;20556;-83
2021/04/20 10:57:15;;;;;;;19.37;17.67;;;24.00;44.80;;;;;;5013483;28;20465;-83
2021/04/20 10:59:50;;;;;;;19.30;17.60;;;23.90;45.00;;;;;;5013124;28;20452;-84
2021/04/20 11:02:20;;;;;;;19.47;17.87;;;24.70;44.10;;;;;;5013733;28;20461;-84
2021/04/20 11:04:47;;;;;;;20.30;18.60;;;26.00;43.20;;;;;;5013906;28;20455;-84
2021/04/20 11:07:21;;;;;;;20.30;18.60;;;26.70;41.70;;;;;;5014106;28;20613;-83
2021/04/20 11:09:48;;;;;;;20.70;18.90;;;28.30;40.00;;;;;;5015162;28;20445;-84
2021/04/20 11:12:17;;;;;;;19.40;17.80;;;28.00;39.40;;;;;;5013665;28;20442;-84
2021/04/20 11:14:45;;;;;;;22.00;20.13;;;26.60;40.60;;;;;;5012823;28;20446;-84
2021/04/20 11:17:19;;;;;;;18.43;16.80;;;26.50;41.20;;;;;;5021408;28;20462;-84
2021/04/20 11:19:50;;;;;;;16.93;15.50;;;26.50;40.50;;;;;;5015534;28;20481;-84
2021/04/20 11:22:19;;;;;;;17.63;16.00;;;26.30;40.40;;;;;;5014489;28;20453;-84
2021/04/20 11:24:59;;;;;;;16.53;15.03;;;25.50;41.30;;;;;;5034082;28;20456;-86
2021/04/20 11:27:29;;;;;;;16.23;14.93;;;24.80;42.70;;;;;;5027975;28;20488;-84
2021/04/20 11:30:03;;;;;;;16.70;15.30;;;24.20;42.90;;;;;;5018759;28;20471;-84
2021/04/20 11:32:30;;;;;;;16.80;15.40;;;24.00;43.20;;;;;;5016896;28;20452;-84
2021/04/20 11:35:04;;;;;;;17.87;16.37;;;23.80;43.90;;;;;;5016224;28;20455;-84
2021/04/20 11:37:33;;;;;;;16.50;15.10;;;25.70;42.90;;;;;;5015862;28;20469;-85
2021/04/20 11:40:06;;;;;;;16.03;14.67;;;27.40;39.60;;;;;;5017331;28;20461;-84
2021/04/20 11:42:36;;;;;;;15.70;14.40;;;25.80;39.90;;;;;;5027487;28;20446;-86
2021/04/20 11:45:11;;;;;;;15.37;13.97;;;25.90;41.50;;;;;;5029011;28;20441;-86
2021/04/20 11:47:55;;;;;;;14.47;13.37;;;26.50;40.80;;;;;;5022751;28;21020;-84
2021/04/20 11:50:24;;;;;;;15.83;14.50;;;27.00;39.70;;;;;;5004224;28;20465;-86
2021/04/20 11:52:58;;;;;;;17.40;15.70;;;29.00;38.20;;;;;;5008741;28;20899;-85
2021/04/20 11:55:30;;;;;;;15.17;13.87;;;30.90;36.10;;;;;;5008703;28;20447;-86
2021/04/20 11:58:05;;;;;;;15.80;14.53;;;31.70;34.20;;;;;;5018644;28;20461;-85
2021/04/20 12:00:33;;;;;;;13.93;12.83;;;32.80;32.20;;;;;;5036349;28;20475;-85
2021/04/20 12:03:09;;;;;;;15.80;14.40;;;33.00;31.40;;;;;;5031247;28;20446;-85
2021/04/20 12:05:37;;;;;;;15.43;14.23;;;32.60;31.70;;;;;;5018142;28;20460;-85
2021/04/20 12:08:09;;;;;;;14.20;13.10;;;30.30;33.50;;;;;;5028791;28;20482;-84
2021/04/20 12:10:36;;;;;;;14.10;12.90;;;30.40;32.70;;;;;;5028035;28;20465;-85
2021/04/20 12:13:03;;;;;;;12.33;11.33;;;31.40;33.40;;;;;;5017120;28;20457;-85
2021/04/20 12:15:30;;;;;;;12.50;11.50;;;30.90;31.50;;;;;;5017681;28;20539;-85
2021/04/20 12:17:58;;;;;;;13.33;12.23;;;29.80;32.80;;;;;;5016243;28;20470;-84
2021/04/20 12:20:29;;;;;;;10.90;10.03;;;29.30;32.80;;;;;;5014893;28;20446;-85
2021/04/20 12:22:57;;;;;;;11.57;10.57;;;31.00;32.10;;;;;;5016059;28;20450;-85
2021/04/20 12:25:25;;;;;;;11.60;10.60;;;30.70;31.80;;;;;;5015368;28;20457;-85
2021/04/20 12:27:54;;;;;;;10.57;9.77;;;30.60;31.30;;;;;;5015634;28;20489;-85
2021/04/20 12:30:22;;;;;;;13.00;11.90;;;30.60;31.00;;;;;;5015220;28;20461;-85
2021/04/20 12:32:49;;;;;;;13.87;12.73;;;29.80;32.20;;;;;;5027751;28;20529;-84
2021/04/20 12:35:24;;;;;;;12.90;11.80;;;29.20;32.70;;;;;;5023502;28;20851;-85
2021/04/20 12:37:55;;;;;;;13.67;12.63;;;29.60;32.50;;;;;;5021019;28;20499;-84
2021/04/20 12:40:22;;;;;;;13.30;12.20;;;29.00;33.10;;;;;;5022276;28;21035;-84
2021/04/20 12:42:55;;;;;;;13.70;12.53;;;28.50;33.00;;;;;;5022956;28;20513;-85
2021/04/20 12:45:25;;;;;;;11.37;10.37;;;29.40;33.10;;;;;;5051991;22;20505;-85
2021/04/20 12:47:55;;;;;;;12.20;11.20;;;31.60;31.30;;;;;;5037630;28;20508;-85
2021/04/20 12:50:28;;;;;;;12.03;11.00;;;29.80;30.70;;;;;;5038676;28;20507;-84
2021/04/20 12:52:59;;;;;;;12.10;11.13;;;30.70;31.90;;;;;;5039276;28;20451;-85
2021/04/20 12:55:28;;;;;;;10.97;10.10;;;29.70;31.50;;;;;;5042365;28;20461;-84
2021/04/20 12:57:58;;;;;;;9.90;9.20;;;30.70;31.80;;;;;;5050425;28;20413;-85
2021/04/20 13:00:26;;;;;;;11.43;10.53;;;30.50;30.40;;;;;;5050960;28;20433;-86